Decoded Metar for PADM (MARSHALL in AK, USA) (IATA:N/A) | Meteo·Mobile Aviation Weather
aviador You're here:

PADM Decoded Metar

MARSHALL in AK, USA
Report Time2018-09-18 13:44:00
UTC Time2018-09-18 14:02:55
Flight Rules lifr LIFR
WindCalm
Visibility402 m
Phenomena:Fog
Clouds:Broken 002 Hf
Overcast 025 Hf
Ceiling200 ft
Temp04°C (ISA -11)
Dew Point04°C (100% RH)
AAT2.7°C
QNH1025 hPa
Density Alt-1,503 ft
Elevation102 ft
Report Wrong Elevation
Raw Report
PADM 181344Z AUTO 00000KT 1/4SM FG BKN002 OVC025 04/04 A3026 RMK
AO2 RVRNO=

Extra information for PADM:More info

Metar Taf Metar & Taf Last 4 Metars F.Rules Stats Wind Profile Meteogram Temp Stats Airport Information Weather charts Add Link Nearby VenuesMetar ALERT Operation Metar Decoded Social comments

AIRNAV info for PADM